createdAt,value
2023-03-22T00:01:40.885Z,5.88
2023-03-22T00:04:08.679Z,5.96
2023-03-22T00:06:36.374Z,5.95
2023-03-22T00:09:05.701Z,5.98
2023-03-22T00:11:33.326Z,6.02
2023-03-22T00:14:00.960Z,5.99
2023-03-22T00:16:28.687Z,5.99
2023-03-22T00:18:56.366Z,5.95
2023-03-22T00:21:24.142Z,5.92
2023-03-22T00:23:51.863Z,5.90
2023-03-22T00:26:20.897Z,5.87
2023-03-22T00:28:48.600Z,5.79
2023-03-22T00:31:16.357Z,5.80
2023-03-22T00:33:44.055Z,5.79
2023-03-22T00:36:13.604Z,5.76
2023-03-22T00:38:44.055Z,5.73
2023-03-22T00:41:14.499Z,5.77
2023-03-22T00:43:44.365Z,5.72
2023-03-22T00:46:12.986Z,5.72
2023-03-22T00:48:40.761Z,5.71
2023-03-22T00:51:09.944Z,5.76
2023-03-22T00:53:38.945Z,5.77
2023-03-22T00:56:09.404Z,5.77
2023-03-22T00:58:37.204Z,5.86
2023-03-22T01:01:07.409Z,5.92
2023-03-22T01:03:35.292Z,5.92
2023-03-22T01:06:03.664Z,6.03
2023-03-22T01:08:33.330Z,6.02
2023-03-22T01:11:01.572Z,6.08
2023-03-22T01:13:29.938Z,6.09
2023-03-22T01:15:57.691Z,6.16
2023-03-22T01:18:26.735Z,6.12
2023-03-22T01:20:54.385Z,6.11
2023-03-22T01:23:22.172Z,6.12
2023-03-22T01:25:49.904Z,6.12
2023-03-22T01:28:17.649Z,6.17
2023-03-22T01:30:45.297Z,6.16
2023-03-22T01:33:12.984Z,6.13
2023-03-22T01:35:42.051Z,6.12
2023-03-22T01:38:09.825Z,6.06
2023-03-22T01:40:37.748Z,5.96
2023-03-22T01:43:07.780Z,5.96
2023-03-22T01:45:39.569Z,5.94
2023-03-22T01:48:14.037Z,6.06
2023-03-22T01:50:49.023Z,6.17
2023-03-22T01:53:23.709Z,6.41
2023-03-22T01:55:52.714Z,6.60
2023-03-22T01:58:20.625Z,6.82
2023-03-22T02:00:53.001Z,6.94
2023-03-22T02:03:30.260Z,7.08
2023-03-22T02:05:59.336Z,7.15
2023-03-22T02:08:27.062Z,7.21
2023-03-22T02:10:57.325Z,7.19
2023-03-22T02:13:59.535Z,7.17
2023-03-22T02:16:39.792Z,7.11
2023-03-22T02:19:32.328Z,7.05
2023-03-22T02:22:32.021Z,7.11
2023-03-22T02:25:28.466Z,7.15
2023-03-22T02:28:16.734Z,7.16
2023-03-22T02:31:18.457Z,7.18
2023-03-22T02:34:07.387Z,7.16
2023-03-22T02:37:04.161Z,7.11
2023-03-22T02:39:39.901Z,6.97
2023-03-22T02:42:17.775Z,6.91
2023-03-22T02:44:53.210Z,6.79
2023-03-22T02:47:25.524Z,6.79
2023-03-22T02:50:00.516Z,6.63
2023-03-22T02:52:33.397Z,6.43
2023-03-22T02:55:11.913Z,6.28
2023-03-22T02:57:46.470Z,5.91
2023-03-22T03:00:17.915Z,5.74
2023-03-22T03:02:49.929Z,5.63
2023-03-22T03:05:19.434Z,5.52
2023-03-22T03:07:50.919Z,5.37
2023-03-22T03:10:21.692Z,5.23
2023-03-22T03:12:49.375Z,5.02
2023-03-22T03:15:19.597Z,4.95
2023-03-22T03:18:01.436Z,4.84
2023-03-22T03:20:37.418Z,4.69
2023-03-22T03:23:15.852Z,4.66
2023-03-22T03:25:51.895Z,4.56
2023-03-22T03:28:30.092Z,4.48
2023-03-22T03:31:04.917Z,4.37
2023-03-22T03:33:36.515Z,4.29
2023-03-22T03:36:09.572Z,4.16
2023-03-22T03:38:41.924Z,4.04
2023-03-22T03:41:15.249Z,3.95
2023-03-22T03:43:44.774Z,3.84
2023-03-22T03:46:13.394Z,3.79
2023-03-22T03:48:45.595Z,3.76
2023-03-22T03:51:13.312Z,3.68
2023-03-22T03:53:41.033Z,3.66
2023-03-22T03:56:11.344Z,3.66
2023-03-22T03:58:39.087Z,3.71
2023-03-22T04:01:07.226Z,3.69
2023-03-22T04:03:35.353Z,3.67
2023-03-22T04:06:06.437Z,3.68
2023-03-22T04:08:34.121Z,3.63
2023-03-22T04:11:01.785Z,3.57
2023-03-22T04:13:30.823Z,3.59
2023-03-22T04:16:02.074Z,3.50
2023-03-22T04:18:30.192Z,3.46
2023-03-22T04:20:58.120Z,3.41
2023-03-22T04:23:28.756Z,3.39
2023-03-22T04:25:59.628Z,3.45
2023-03-22T04:28:27.585Z,3.50
2023-03-22T04:30:57.783Z,3.62
2023-03-22T04:33:26.335Z,3.73
2023-03-22T04:35:56.699Z,3.83
2023-03-22T04:38:31.177Z,4.00
2023-03-22T04:41:05.430Z,4.06
2023-03-22T04:43:39.289Z,4.18
2023-03-22T04:49:10.780Z,4.62
2023-03-22T04:51:46.030Z,4.72
2023-03-22T04:54:19.537Z,4.84
2023-03-22T04:56:47.213Z,4.96
2023-03-22T04:59:21.228Z,5.02
2023-03-22T05:01:57.785Z,5.08
2023-03-22T05:04:43.697Z,5.22
2023-03-22T05:07:17.450Z,5.30
2023-03-22T05:09:51.214Z,5.32
2023-03-22T05:12:25.701Z,5.38
2023-03-22T05:15:00.902Z,5.28
2023-03-22T05:20:21.807Z,5.16
2023-03-22T05:26:05.564Z,4.97
2023-03-22T05:28:44.665Z,4.96
2023-03-22T05:31:18.247Z,4.92
2023-03-22T05:33:53.810Z,4.96
2023-03-22T05:39:11.233Z,5.17
2023-03-22T05:44:35.503Z,5.13
2023-03-22T05:47:03.210Z,5.11
2023-03-22T05:49:47.257Z,5.08
2023-03-22T05:52:20.702Z,5.11
2023-03-22T05:55:15.285Z,5.06
2023-03-22T05:58:09.762Z,5.07
2023-03-22T06:01:20.031Z,5.10
2023-03-22T06:04:06.655Z,5.10
2023-03-22T06:06:46.478Z,5.10
2023-03-22T06:09:24.536Z,5.33
2023-03-22T06:14:45.427Z,5.96
2023-03-22T06:17:13.163Z,6.26
2023-03-22T06:19:40.840Z,6.52
2023-03-22T06:22:09.959Z,6.76
2023-03-22T06:24:40.561Z,6.95
2023-03-22T06:27:08.454Z,7.14
2023-03-22T06:29:36.588Z,7.28
2023-03-22T06:32:04.823Z,7.42
2023-03-22T06:34:32.514Z,7.53
2023-03-22T06:37:00.698Z,7.68
2023-03-22T06:39:29.813Z,7.82
2023-03-22T06:41:57.579Z,7.99
2023-03-22T06:44:25.268Z,8.11
2023-03-22T06:46:52.928Z,8.28
2023-03-22T06:49:21.851Z,8.41
2023-03-22T06:51:49.543Z,8.54
2023-03-22T06:54:17.198Z,8.70
2023-03-22T06:56:49.117Z,8.87
2023-03-22T06:59:16.783Z,9.05
2023-03-22T07:01:47.478Z,9.26
2023-03-22T07:04:15.401Z,9.46
2023-03-22T07:06:43.187Z,9.66
2023-03-22T07:09:11.450Z,9.80
2023-03-22T07:11:39.157Z,9.99
2023-03-22T07:14:08.229Z,10.19
2023-03-22T07:16:35.918Z,10.37
2023-03-22T07:19:03.733Z,10.51
2023-03-22T07:21:31.480Z,10.63
2023-03-22T07:23:59.187Z,10.77
2023-03-22T07:26:27.208Z,10.90
2023-03-22T07:28:54.936Z,11.04
2023-03-22T07:31:24.067Z,11.15
2023-03-22T07:33:52.172Z,11.28
2023-03-22T07:36:23.793Z,11.42
2023-03-22T07:38:52.089Z,11.58
2023-03-22T07:41:19.818Z,11.69
2023-03-22T07:43:54.212Z,11.70
2023-03-22T07:46:24.248Z,11.70
2023-03-22T07:48:56.850Z,11.72
2023-03-22T07:51:24.688Z,11.75
2023-03-22T07:53:52.337Z,11.71
2023-03-22T07:56:19.993Z,11.80
2023-03-22T07:58:47.739Z,11.92
2023-03-22T08:01:15.596Z,11.92
2023-03-22T08:03:44.685Z,12.10
2023-03-22T08:06:12.474Z,12.25
2023-03-22T08:08:40.498Z,12.36
2023-03-22T08:11:09.057Z,12.45
2023-03-22T08:13:37.894Z,12.56
2023-03-22T08:16:06.432Z,12.67
2023-03-22T08:18:34.229Z,12.76
2023-03-22T08:21:03.291Z,12.83
2023-03-22T08:23:41.569Z,12.95
2023-03-22T08:26:10.048Z,13.12
2023-03-22T08:28:38.219Z,13.31
2023-03-22T08:31:13.896Z,13.29
2023-03-22T08:33:42.912Z,13.39
2023-03-22T08:36:14.770Z,13.54
2023-03-22T08:38:45.295Z,13.74
2023-03-22T08:41:13.726Z,13.71
2023-03-22T08:43:41.448Z,13.76
2023-03-22T08:46:10.072Z,13.82
2023-03-22T08:48:38.489Z,14.05
2023-03-22T08:51:07.261Z,14.13
2023-03-22T08:53:36.483Z,14.25
2023-03-22T08:56:04.561Z,14.32
2023-03-22T08:58:32.325Z,14.47
2023-03-22T09:01:00.259Z,14.59
2023-03-22T09:03:28.054Z,14.57
2023-03-22T09:05:55.827Z,14.75
2023-03-22T09:08:23.526Z,14.92
2023-03-22T09:10:52.649Z,14.82
2023-03-22T09:13:20.927Z,14.97
2023-03-22T09:15:49.103Z,15.11
2023-03-22T09:18:19.626Z,15.08
2023-03-22T09:20:48.126Z,15.10
2023-03-22T09:23:22.095Z,15.13
2023-03-22T09:26:49.055Z,15.03
2023-03-22T09:30:28.753Z,15.27
2023-03-22T09:33:15.364Z,15.37
2023-03-22T09:39:11.158Z,15.65
2023-03-22T09:41:45.242Z,15.82
2023-03-22T09:44:17.268Z,15.79
2023-03-22T09:46:49.788Z,15.87
2023-03-22T09:49:20.922Z,15.97
2023-03-22T09:51:50.975Z,16.02
2023-03-22T09:54:21.720Z,16.14
2023-03-22T09:56:54.725Z,16.23
2023-03-22T09:59:27.235Z,16.43
2023-03-22T10:02:00.048Z,16.69
2023-03-22T10:04:45.082Z,17.04
2023-03-22T10:07:27.116Z,16.90
2023-03-22T10:10:07.276Z,17.04
2023-03-22T10:12:43.875Z,16.98
2023-03-22T10:15:15.865Z,16.97
2023-03-22T10:17:49.969Z,17.13
2023-03-22T10:20:31.051Z,17.49
2023-03-22T10:23:02.611Z,17.84
2023-03-22T10:25:37.128Z,18.09
2023-03-22T10:28:15.066Z,18.40
2023-03-22T10:30:44.404Z,18.95
2023-03-22T10:33:20.185Z,19.13
2023-03-22T10:35:48.883Z,19.38
2023-03-22T10:38:22.402Z,19.51
2023-03-22T10:40:51.304Z,19.92
2023-03-22T10:43:23.629Z,19.94
2023-03-22T10:45:53.953Z,20.09
2023-03-22T10:48:28.765Z,19.15
2023-03-22T10:50:59.077Z,19.43
2023-03-22T10:53:33.986Z,19.58
2023-03-22T10:56:01.680Z,19.83
2023-03-22T10:58:33.806Z,19.27
2023-03-22T11:01:06.928Z,19.63
2023-03-22T11:03:41.712Z,19.94
2023-03-22T11:06:11.938Z,20.14
2023-03-22T11:08:42.153Z,20.28
2023-03-22T11:11:17.405Z,20.65
2023-03-22T11:13:52.051Z,20.52
2023-03-22T11:16:36.917Z,20.76
2023-03-22T11:23:32.004Z,20.34
2023-03-22T11:30:09.201Z,20.55
2023-03-22T11:32:47.918Z,20.37
2023-03-22T11:39:01.627Z,20.25
2023-03-22T11:42:28.427Z,20.26
2023-03-22T11:45:19.453Z,20.31
2023-03-22T11:51:22.027Z,20.27
2023-03-22T11:56:32.125Z,20.88
2023-03-22T11:59:05.753Z,21.29
2023-03-22T12:01:41.799Z,21.27
2023-03-22T12:04:16.364Z,21.10
2023-03-22T12:06:45.815Z,20.91
2023-03-22T12:09:25.560Z,21.17
2023-03-22T12:11:56.210Z,21.13
2023-03-22T12:14:27.894Z,21.05
2023-03-22T12:16:58.810Z,21.12
2023-03-22T12:19:51.653Z,21.05
2023-03-22T12:22:24.072Z,21.03
2023-03-22T12:25:20.800Z,21.22
2023-03-22T12:29:00.701Z,20.88
2023-03-22T12:31:51.476Z,21.08
2023-03-22T12:35:17.656Z,21.00
2023-03-22T12:40:49.306Z,21.39
2023-03-22T12:43:23.803Z,20.93
2023-03-22T12:45:55.949Z,20.98
2023-03-22T12:48:33.404Z,20.92
2023-03-22T12:51:08.184Z,20.94
2023-03-22T12:54:25.599Z,20.85
2023-03-22T12:57:32.167Z,20.81
2023-03-22T13:02:49.967Z,20.58
2023-03-22T13:05:19.098Z,20.61
2023-03-22T13:07:58.798Z,20.60
2023-03-22T13:10:59.586Z,20.69
2023-03-22T13:13:41.623Z,20.79
2023-03-22T13:16:22.823Z,20.95
2023-03-22T13:19:18.853Z,21.06
2023-03-22T13:21:49.927Z,21.34
2023-03-22T13:24:23.605Z,21.36
2023-03-22T13:26:53.525Z,21.21
2023-03-22T13:29:24.419Z,21.57
2023-03-22T13:31:58.988Z,21.99
2023-03-22T13:34:40.806Z,21.65
2023-03-22T13:37:22.637Z,21.81
2023-03-22T13:39:52.793Z,21.73
2023-03-22T13:42:29.391Z,21.28
2023-03-22T13:45:02.292Z,21.43
2023-03-22T13:47:32.813Z,21.65
2023-03-22T13:50:07.457Z,21.75
2023-03-22T13:52:39.526Z,22.15
2023-03-22T13:55:36.434Z,22.57
2023-03-22T13:58:05.872Z,23.34
2023-03-22T14:00:53.995Z,23.84
2023-03-22T14:03:28.648Z,23.76
2023-03-22T14:06:07.319Z,23.81
2023-03-22T14:08:37.299Z,22.44
2023-03-22T14:11:16.768Z,21.53
2023-03-22T14:13:47.998Z,21.18
2023-03-22T14:16:20.974Z,21.09
2023-03-22T14:18:50.694Z,20.17
2023-03-22T14:21:25.929Z,20.24
